Time,TemperatureF,DewpointF,PressureIn,WindDirection,WindDirectionDegrees,WindSpeedMPH,WindSpeedGustMPH,Humidity,HourlyPrecipIn,Conditions,Clouds,dailyrainin,SolarRadiationWatts/m^2,SoftwareType,DateUTC
2013-10-11 00:00:00,78.5,72.2,29.87,ESE,112,2.0,9.0,81,0.00,,,0.00,0.00,VWS V14.00,2013-10-11 05:00:00,
2013-10-11 00:15:00,78.3,72.4,29.87,East,90,2.0,11.0,82,0.00,,,0.00,0.00,VWS V14.00,2013-10-11 05:15:00,
2013-10-11 00:30:00,78.2,72.3,29.86,SE,135,2.0,10.0,82,0.00,,,0.00,0.00,VWS V14.00,2013-10-11 05:30:00,
2013-10-11 00:45:00,78.5,72.2,29.86,ESE,112,2.0,11.0,81,0.00,,,0.00,0.00,VWS V14.00,2013-10-11 05:45:00,
2013-10-11 01:00:00,78.3,72.4,29.86,ESE,112,2.0,8.0,82,0.00,,,0.00,0.00,VWS V14.00,2013-10-11 06:00:00,
2013-10-11 01:15:00,78.3,72.0,29.85,SE,135,2.0,11.0,81,0.00,,,0.00,0.00,VWS V14.00,2013-10-11 06:15:00,
2013-10-11 01:30:00,78.1,72.2,29.86,ESE,112,2.0,10.0,82,0.00,,,0.00,0.00,VWS V14.00,2013-10-11 06:30:00,
2013-10-11 01:45:00,78.2,72.6,29.86,East,90,2.0,7.0,83,0.00,,,0.00,0.00,VWS V14.00,2013-10-11 06:45:00,
2013-10-11 02:00:00,78.5,72.9,29.86,SSE,158,2.0,9.0,83,0.00,,,0.00,0.00,VWS V14.00,2013-10-11 07:00:00,
2013-10-11 02:15:00,78.4,72.8,29.85,SE,135,2.0,6.0,83,0.00,,,0.00,0.00,VWS V14.00,2013-10-11 07:15:00,
2013-10-11 02:30:00,78.0,72.8,29.84,South,180,1.0,5.0,84,0.00,,,0.00,0.00,VWS V14.00,2013-10-11 07:30:00,
2013-10-11 02:45:00,77.7,72.5,29.84,ESE,112,1.0,6.0,84,0.00,,,0.00,0.00,VWS V14.00,2013-10-11 07:45:00,
2013-10-11 03:00:00,77.9,72.3,29.84,SSW,202,1.0,7.0,83,0.00,,,0.00,0.00,VWS V14.00,2013-10-11 08:00:00,
2013-10-11 03:15:00,77.5,71.9,29.83,South,180,1.0,7.0,83,0.00,,,0.00,0.00,VWS V14.00,2013-10-11 08:15:00,
2013-10-11 03:39:00,77.3,71.7,29.83,South,180,1.0,5.0,83,0.00,,,0.00,0.00,VWS V14.00,2013-10-11 08:39:00,
2013-10-11 03:45:00,77.3,72.1,29.83,ESE,112,1.0,9.0,84,0.00,,,0.00,0.00,VWS V14.00,2013-10-11 08:45:00,
2013-10-11 04:00:00,77.6,72.4,29.83,South,180,1.0,7.0,84,0.00,,,0.00,0.00,VWS V14.00,2013-10-11 09:00:00,
2013-10-11 04:15:00,77.6,72.4,29.82,SSE,158,2.0,8.0,84,0.00,,,0.00,0.00,VWS V14.00,2013-10-11 09:15:00,
2013-10-11 04:30:00,77.7,72.1,29.83,South,180,2.0,6.0,83,0.00,,,0.00,0.00,VWS V14.00,2013-10-11 09:30:00,
2013-10-11 04:45:00,77.7,72.1,29.83,South,180,1.0,6.0,83,0.00,,,0.00,0.00,VWS V14.00,2013-10-11 09:45:00,
2013-10-11 05:00:00,77.8,72.6,29.83,South,180,2.0,11.0,84,0.00,,,0.00,0.00,VWS V14.00,2013-10-11 10:00:00,
2013-10-11 05:15:00,77.8,72.6,29.83,South,180,2.0,6.0,84,0.00,,,0.00,0.00,VWS V14.00,2013-10-11 10:15:00,
2013-10-11 05:30:00,78.0,72.8,29.83,South,180,2.0,6.0,84,0.00,,,0.00,0.00,VWS V14.00,2013-10-11 10:30:00,
2013-10-11 05:45:00,78.1,72.9,29.83,SSE,158,2.0,10.0,84,0.00,,,0.00,0.00,VWS V14.00,2013-10-11 10:45:00,
2013-10-11 06:00:00,77.9,73.0,29.84,SSE,158,1.0,5.0,85,0.00,,,0.00,0.00,VWS V14.00,2013-10-11 11:00:00,
2013-10-11 06:15:00,77.7,73.2,29.84,SSE,158,1.0,4.0,86,0.00,,,0.00,0.00,VWS V14.00,2013-10-11 11:15:00,
2013-10-11 06:30:00,77.8,73.3,29.84,SSE,158,1.0,8.0,86,0.00,,,0.00,0.00,VWS V14.00,2013-10-11 11:30:00,
2013-10-11 06:45:00,77.8,73.3,29.84,South,180,1.0,7.0,86,0.00,,,0.00,0.00,VWS V14.00,2013-10-11 11:45:00,
2013-10-11 07:00:00,77.6,73.1,29.85,SSE,158,1.0,4.0,86,0.00,,,0.00,0.00,VWS V14.00,2013-10-11 12:00:00,
2013-10-11 07:15:00,77.7,73.2,29.85,SE,135,1.0,5.0,86,0.00,,,0.00,0.00,VWS V14.00,2013-10-11 12:15:00,
2013-10-11 07:30:00,78.0,73.1,29.85,SSE,158,1.0,5.0,85,0.00,,,0.00,0.00,VWS V14.00,2013-10-11 12:30:00,
2013-10-11 07:45:00,78.3,73.1,29.86,SE,135,1.0,5.0,84,0.00,,,0.00,7.00,VWS V14.00,2013-10-11 12:45:00,
2013-10-11 08:00:00,78.3,73.4,29.86,SE,135,1.0,5.0,85,0.00,,,0.00,24.00,VWS V14.00,2013-10-11 13:00:00,
2013-10-11 08:15:00,78.5,73.6,29.86,SE,135,1.0,5.0,85,0.00,,,0.00,34.00,VWS V14.00,2013-10-11 13:15:00,
2013-10-11 08:30:00,78.8,74.3,29.87,ESE,112,1.0,4.0,86,0.00,,,0.00,60.00,VWS V14.00,2013-10-11 13:30:00,
2013-10-11 08:45:00,79.4,74.8,29.87,ESE,112,1.0,4.0,86,0.00,,,0.00,100.00,VWS V14.00,2013-10-11 13:45:00,
2013-10-11 09:00:00,79.9,75.3,29.87,East,90,1.0,6.0,86,0.00,,,0.00,117.00,VWS V14.00,2013-10-11 14:00:00,
2013-10-11 09:15:00,80.3,75.4,29.87,ESE,112,1.0,6.0,85,0.00,,,0.00,126.00,VWS V14.00,2013-10-11 14:15:00,
2013-10-11 09:30:00,82.7,76.7,29.87,ESE,112,2.0,9.0,82,0.00,,,0.00,446.00,VWS V14.00,2013-10-11 14:30:00,
2013-10-11 09:45:00,82.4,76.4,29.88,East,90,3.0,7.0,82,0.00,,,0.00,276.00,VWS V14.00,2013-10-11 14:45:00,
2013-10-11 10:00:00,82.5,76.1,29.88,ESE,112,3.0,9.0,81,0.00,,,0.00,329.00,VWS V14.00,2013-10-11 15:00:00,
2013-10-11 10:15:00,83.3,76.5,29.88,ESE,112,3.0,10.0,80,0.00,,,0.00,475.00,VWS V14.00,2013-10-11 15:15:00,
2013-10-11 10:30:00,83.2,76.4,29.88,ESE,112,4.0,10.0,80,0.00,,,0.00,376.00,VWS V14.00,2013-10-11 15:30:00,
2013-10-11 10:45:00,84.1,76.9,29.88,ESE,112,4.0,11.0,79,0.00,,,0.00,619.00,VWS V14.00,2013-10-11 15:45:00,
2013-10-11 11:00:00,84.6,77.0,29.88,ESE,112,3.0,9.0,78,0.00,,,0.00,602.00,VWS V14.00,2013-10-11 16:00:00,
2013-10-11 11:15:00,83.6,76.8,29.88,East,90,3.0,11.0,80,0.00,,,0.00,329.00,VWS V14.00,2013-10-11 16:15:00,
2013-10-11 11:30:00,82.9,76.5,29.88,ESE,112,3.0,9.0,81,0.00,,,0.00,233.00,VWS V14.00,2013-10-11 16:30:00,
2013-10-11 11:45:00,83.8,77.0,29.88,East,90,4.0,12.0,80,0.00,,,0.00,348.00,VWS V14.00,2013-10-11 16:45:00,
2013-10-11 12:00:00,85.3,77.7,29.88,SSE,158,4.0,11.0,78,0.00,,,0.00,855.00,VWS V14.00,2013-10-11 17:00:00,
2013-10-11 12:15:00,85.4,77.4,29.87,East,90,4.0,11.0,77,0.00,,,0.00,824.00,VWS V14.00,2013-10-11 17:15:00,
2013-10-11 12:30:00,84.3,76.7,29.87,East,90,4.0,13.0,78,0.00,,,0.00,375.00,VWS V14.00,2013-10-11 17:30:00,
2013-10-11 12:45:00,83.7,77.2,29.86,East,90,3.0,12.0,81,0.00,,,0.00,368.00,VWS V14.00,2013-10-11 17:45:00,
2013-10-11 13:00:00,85.3,77.7,29.86,ESE,112,5.0,12.0,78,0.00,,,0.00,696.00,VWS V14.00,2013-10-11 18:00:00,
2013-10-11 13:15:00,83.8,77.3,29.85,East,90,4.0,12.0,81,0.00,,,0.00,297.00,VWS V14.00,2013-10-11 18:15:00,
2013-10-11 13:30:00,84.5,78.0,29.84,East,90,5.0,12.0,81,0.00,,,0.00,627.00,VWS V14.00,2013-10-11 18:30:00,
2013-10-11 13:45:00,85.1,77.9,29.84,ESE,112,4.0,10.0,79,0.00,,,0.00,729.00,VWS V14.00,2013-10-11 18:45:00,
2013-10-11 14:00:00,84.4,77.9,29.83,ESE,112,3.0,12.0,81,0.00,,,0.00,340.00,VWS V14.00,2013-10-11 19:00:00,
2013-10-11 14:15:00,84.8,77.9,29.83,East,90,4.0,9.0,80,0.00,,,0.00,421.00,VWS V14.00,2013-10-11 19:15:00,
2013-10-11 14:30:00,84.1,77.6,29.82,ESE,112,3.0,11.0,81,0.00,,,0.00,336.00,VWS V14.00,2013-10-11 19:30:00,
2013-10-11 14:45:00,84.3,77.8,29.82,ESE,112,4.0,10.0,81,0.00,,,0.00,261.00,VWS V14.00,2013-10-11 19:45:00,
2013-10-11 15:00:00,83.3,78.3,29.82,ESE,112,3.0,9.0,85,0.00,,,0.00,520.00,VWS V14.00,2013-10-11 20:00:00,
2013-10-11 15:15:00,82.7,78.1,29.82,ESE,112,3.0,10.0,86,0.00,,,0.00,317.00,VWS V14.00,2013-10-11 20:15:00,
2013-10-11 15:30:00,83.1,78.1,29.81,ESE,112,3.0,9.0,85,0.00,,,0.00,600.00,VWS V14.00,2013-10-11 20:30:00,
2013-10-11 15:54:00,82.3,76.6,29.81,ESE,112,4.0,11.0,83,0.00,,,0.00,621.00,VWS V14.00,2013-10-11 20:54:00,
2013-10-11 16:15:00,83.2,77.5,29.81,ESE,112,3.0,10.0,83,0.00,,,0.00,528.00,VWS V14.00,2013-10-11 21:15:00,
2013-10-11 16:30:00,83.1,77.0,29.81,ESE,112,4.0,10.0,82,0.00,,,0.00,490.00,VWS V14.00,2013-10-11 21:30:00,
2013-10-11 16:45:00,82.2,76.2,29.81,ESE,112,3.0,10.0,82,0.00,,,0.00,343.00,VWS V14.00,2013-10-11 21:45:00,
2013-10-11 17:00:00,83.2,76.8,29.81,ESE,112,2.0,6.0,81,0.00,,,0.00,368.00,VWS V14.00,2013-10-11 22:00:00,
2013-10-11 17:15:00,82.4,75.6,29.80,ESE,112,3.0,9.0,80,0.00,,,0.00,248.00,VWS V14.00,2013-10-11 22:15:00,
2013-10-11 17:30:00,81.7,74.9,29.80,ESE,112,3.0,9.0,80,0.00,,,0.00,118.00,VWS V14.00,2013-10-11 22:30:00,
2013-10-11 17:45:00,81.8,75.8,29.80,ESE,112,4.0,10.0,82,0.00,,,0.00,197.00,VWS V14.00,2013-10-11 22:45:00,
2013-10-11 18:00:00,82.1,76.4,29.81,East,90,3.0,11.0,83,0.00,,,0.00,143.00,VWS V14.00,2013-10-11 23:00:00,
2013-10-11 18:15:00,81.5,76.6,29.81,East,90,4.0,10.0,85,0.00,,,0.00,83.00,VWS V14.00,2013-10-11 23:15:00,
2013-10-11 18:30:00,81.2,76.6,29.81,East,90,3.0,10.0,86,0.00,,,0.00,33.00,VWS V14.00,2013-10-11 23:30:00,
2013-10-11 18:45:00,80.9,76.7,29.81,ESE,112,3.0,9.0,87,0.00,,,0.00,21.00,VWS V14.00,2013-10-11 23:45:00,
2013-10-11 19:00:00,80.5,76.6,29.81,East,90,4.0,8.0,88,0.00,,,0.00,9.00,VWS V14.00,2013-10-12 00:00:00,
2013-10-11 19:15:00,80.4,77.2,29.82,East,90,4.0,8.0,90,0.00,,,0.00,0.00,VWS V14.00,2013-10-12 00:15:00,
2013-10-11 19:30:00,80.3,77.1,29.81,East,90,4.0,9.0,90,0.00,,,0.00,0.00,VWS V14.00,2013-10-12 00:30:00,
2013-10-11 19:45:00,80.3,77.4,29.82,East,90,3.0,8.0,91,0.00,,,0.00,0.00,VWS V14.00,2013-10-12 00:45:00,
2013-10-11 20:00:00,80.2,77.3,29.81,East,90,4.0,10.0,91,0.00,,,0.00,0.00,VWS V14.00,2013-10-12 01:00:00,
2013-10-11 20:15:00,80.2,77.3,29.81,East,90,3.0,7.0,91,0.00,,,0.00,0.00,VWS V14.00,2013-10-12 01:15:00,
2013-10-11 20:30:00,80.1,77.2,29.82,East,90,3.0,8.0,91,0.00,,,0.00,0.00,VWS V14.00,2013-10-12 01:30:00,
2013-10-11 20:45:00,80.1,77.6,29.83,East,90,3.0,10.0,92,0.00,,,0.00,0.00,VWS V14.00,2013-10-12 01:45:00,
2013-10-11 21:00:00,79.9,77.4,29.83,ESE,112,3.0,7.0,92,0.00,,,0.00,0.00,VWS V14.00,2013-10-12 02:00:00,
2013-10-11 21:15:00,79.9,77.4,29.83,East,90,2.0,7.0,92,0.00,,,0.00,0.00,VWS V14.00,2013-10-12 02:15:00,
2013-10-11 21:30:00,79.8,77.3,29.83,East,90,2.0,6.0,92,0.00,,,0.00,0.00,VWS V14.00,2013-10-12 02:30:00,
2013-10-11 21:45:00,79.7,77.2,29.84,ESE,112,2.0,6.0,92,0.00,,,0.00,0.00,VWS V14.00,2013-10-12 02:45:00,
2013-10-11 22:00:00,79.5,77.0,29.84,ESE,112,2.0,6.0,92,0.00,,,0.00,0.00,VWS V14.00,2013-10-12 03:00:00,
2013-10-11 22:15:00,79.5,76.7,29.84,SSE,158,1.0,7.0,91,0.00,,,0.00,0.00,VWS V14.00,2013-10-12 03:15:00,
2013-10-11 22:30:00,79.6,76.4,29.84,South,180,1.0,6.0,90,0.00,,,0.00,0.00,VWS V14.00,2013-10-12 03:30:00,
2013-10-11 22:45:00,79.5,76.3,29.84,ESE,112,2.0,7.0,90,0.00,,,0.00,0.00,VWS V14.00,2013-10-12 03:45:00,
2013-10-11 23:00:00,79.5,76.7,29.84,ESE,112,1.0,7.0,91,0.00,,,0.00,0.00,VWS V14.00,2013-10-12 04:00:00,
2013-10-11 23:15:00,79.5,76.7,29.84,East,90,1.0,6.0,91,0.00,,,0.00,0.00,VWS V14.00,2013-10-12 04:15:00,
2013-10-11 23:30:00,79.4,76.6,29.84,ESE,112,2.0,5.0,91,0.00,,,0.00,0.00,VWS V14.00,2013-10-12 04:30:00,
2013-10-11 23:45:00,79.4,76.9,29.84,ESE,112,1.0,5.0,92,0.00,,,0.00,0.00,VWS V14.00,2013-10-12 04:45:00,